sensor_id;sensor_type;location;lat;lon;timestamp;P1;durP1;ratioP1;P2;durP2;ratioP2
21297;SDS011;10808;48.010;11.326;2023-08-06T00:00:22;5.95;;;5.18;;
21297;SDS011;10808;48.010;11.326;2023-08-06T00:02:48;6.32;;;5.30;;
21297;SDS011;10808;48.010;11.326;2023-08-06T00:05:15;6.53;;;5.80;;
21297;SDS011;10808;48.010;11.326;2023-08-06T00:07:46;7.83;;;6.20;;
21297;SDS011;10808;48.010;11.326;2023-08-06T00:10:13;8.10;;;6.88;;
21297;SDS011;10808;48.010;11.326;2023-08-06T00:12:39;8.18;;;6.63;;
21297;SDS011;10808;48.010;11.326;2023-08-06T00:15:05;8.82;;;6.35;;
21297;SDS011;10808;48.010;11.326;2023-08-06T00:17:33;8.00;;;6.45;;
21297;SDS011;10808;48.010;11.326;2023-08-06T00:19:59;10.07;;;6.32;;
21297;SDS011;10808;48.010;11.326;2023-08-06T00:22:33;10.55;;;6.53;;
21297;SDS011;10808;48.010;11.326;2023-08-06T00:25:00;9.77;;;6.70;;
21297;SDS011;10808;48.010;11.326;2023-08-06T00:27:26;8.30;;;6.45;;
21297;SDS011;10808;48.010;11.326;2023-08-06T00:29:52;10.18;;;7.00;;
21297;SDS011;10808;48.010;11.326;2023-08-06T00:32:19;8.23;;;6.60;;
21297;SDS011;10808;48.010;11.326;2023-08-06T00:34:45;8.03;;;6.37;;
21297;SDS011;10808;48.010;11.326;2023-08-06T00:37:11;8.85;;;6.80;;
21297;SDS011;10808;48.010;11.326;2023-08-06T00:39:37;8.82;;;6.68;;
21297;SDS011;10808;48.010;11.326;2023-08-06T00:42:03;8.10;;;6.47;;
21297;SDS011;10808;48.010;11.326;2023-08-06T00:44:29;9.23;;;6.45;;
21297;SDS011;10808;48.010;11.326;2023-08-06T00:46:55;10.98;;;6.50;;
21297;SDS011;10808;48.010;11.326;2023-08-06T00:49:21;9.10;;;6.72;;
21297;SDS011;10808;48.010;11.326;2023-08-06T00:51:48;7.90;;;6.00;;
21297;SDS011;10808;48.010;11.326;2023-08-06T00:54:15;6.60;;;4.95;;
21297;SDS011;10808;48.010;11.326;2023-08-06T00:56:41;5.95;;;5.10;;
21297;SDS011;10808;48.010;11.326;2023-08-06T00:59:08;6.57;;;4.90;;
21297;SDS011;10808;48.010;11.326;2023-08-06T01:01:37;6.35;;;4.70;;
21297;SDS011;10808;48.010;11.326;2023-08-06T01:04:03;7.40;;;4.88;;
21297;SDS011;10808;48.010;11.326;2023-08-06T01:06:33;5.43;;;4.60;;
21297;SDS011;10808;48.010;11.326;2023-08-06T01:09:13;5.30;;;4.75;;
21297;SDS011;10808;48.010;11.326;2023-08-06T01:12:05;5.53;;;4.32;;
21297;SDS011;10808;48.010;11.326;2023-08-06T01:14:45;6.10;;;4.25;;
21297;SDS011;10808;48.010;11.326;2023-08-06T01:17:19;4.60;;;4.07;;
21297;SDS011;10808;48.010;11.326;2023-08-06T01:19:45;5.00;;;3.90;;
21297;SDS011;10808;48.010;11.326;2023-08-06T01:22:11;4.90;;;4.10;;
21297;SDS011;10808;48.010;11.326;2023-08-06T01:24:37;5.70;;;3.70;;
21297;SDS011;10808;48.010;11.326;2023-08-06T01:27:06;6.03;;;3.88;;
21297;SDS011;10808;48.010;11.326;2023-08-06T01:29:35;5.03;;;3.70;;
21297;SDS011;10808;48.010;11.326;2023-08-06T01:32:08;5.00;;;3.67;;
21297;SDS011;10808;48.010;11.326;2023-08-06T01:34:37;6.35;;;3.80;;
21297;SDS011;10808;48.010;11.326;2023-08-06T01:37:06;5.10;;;3.93;;
21297;SDS011;10808;48.010;11.326;2023-08-06T01:39:33;4.32;;;3.58;;
21297;SDS011;10808;48.010;11.326;2023-08-06T01:41:59;5.50;;;3.60;;
21297;SDS011;10808;48.010;11.326;2023-08-06T01:44:25;3.88;;;3.38;;
21297;SDS011;10808;48.010;11.326;2023-08-06T01:46:51;3.80;;;3.40;;
21297;SDS011;10808;48.010;11.326;2023-08-06T01:49:17;4.80;;;3.40;;
21297;SDS011;10808;48.010;11.326;2023-08-06T01:51:43;4.57;;;3.70;;
21297;SDS011;10808;48.010;11.326;2023-08-06T01:54:09;4.50;;;3.40;;
21297;SDS011;10808;48.010;11.326;2023-08-06T01:56:35;7.22;;;3.75;;
21297;SDS011;10808;48.010;11.326;2023-08-06T01:59:01;4.88;;;3.33;;
21297;SDS011;10808;48.010;11.326;2023-08-06T02:01:27;4.90;;;3.30;;
21297;SDS011;10808;48.010;11.326;2023-08-06T02:03:53;4.97;;;3.30;;
21297;SDS011;10808;48.010;11.326;2023-08-06T02:06:19;3.83;;;3.42;;
21297;SDS011;10808;48.010;11.326;2023-08-06T02:08:45;4.72;;;3.50;;
21297;SDS011;10808;48.010;11.326;2023-08-06T02:11:11;5.55;;;3.65;;
21297;SDS011;10808;48.010;11.326;2023-08-06T02:13:37;3.85;;;3.30;;
21297;SDS011;10808;48.010;11.326;2023-08-06T02:16:03;4.53;;;3.22;;
21297;SDS011;10808;48.010;11.326;2023-08-06T02:18:32;4.40;;;3.60;;
21297;SDS011;10808;48.010;11.326;2023-08-06T02:20:58;3.78;;;3.28;;
21297;SDS011;10808;48.010;11.326;2023-08-06T02:23:24;3.67;;;3.35;;
21297;SDS011;10808;48.010;11.326;2023-08-06T02:26:03;6.05;;;3.28;;
21297;SDS011;10808;48.010;11.326;2023-08-06T02:28:30;3.30;;;3.00;;
21297;SDS011;10808;48.010;11.326;2023-08-06T02:30:57;3.40;;;3.10;;
21297;SDS011;10808;48.010;11.326;2023-08-06T02:33:23;3.63;;;3.00;;
21297;SDS011;10808;48.010;11.326;2023-08-06T02:35:49;4.55;;;3.20;;
21297;SDS011;10808;48.010;11.326;2023-08-06T02:38:16;5.00;;;3.17;;
21297;SDS011;10808;48.010;11.326;2023-08-06T02:40:45;3.95;;;3.22;;
21297;SDS011;10808;48.010;11.326;2023-08-06T02:43:14;3.38;;;3.00;;
21297;SDS011;10808;48.010;11.326;2023-08-06T02:45:41;4.03;;;3.20;;
21297;SDS011;10808;48.010;11.326;2023-08-06T02:48:07;3.70;;;3.10;;
21297;SDS011;10808;48.010;11.326;2023-08-06T02:50:39;4.33;;;3.40;;
21297;SDS011;10808;48.010;11.326;2023-08-06T02:53:06;3.83;;;2.95;;
21297;SDS011;10808;48.010;11.326;2023-08-06T02:55:33;3.77;;;3.20;;
21297;SDS011;10808;48.010;11.326;2023-08-06T02:58:00;3.53;;;2.97;;
21297;SDS011;10808;48.010;11.326;2023-08-06T03:00:27;3.58;;;3.03;;
21297;SDS011;10808;48.010;11.326;2023-08-06T03:02:53;3.28;;;2.78;;
21297;SDS011;10808;48.010;11.326;2023-08-06T03:05:19;3.10;;;2.78;;
21297;SDS011;10808;48.010;11.326;2023-08-06T03:07:45;3.08;;;2.78;;
21297;SDS011;10808;48.010;11.326;2023-08-06T03:10:12;2.90;;;2.60;;
21297;SDS011;10808;48.010;11.326;2023-08-06T03:12:38;3.63;;;2.80;;
21297;SDS011;10808;48.010;11.326;2023-08-06T03:15:05;3.75;;;2.60;;
21297;SDS011;10808;48.010;11.326;2023-08-06T03:17:31;3.10;;;2.65;;
21297;SDS011;10808;48.010;11.326;2023-08-06T03:19:57;2.88;;;2.63;;
21297;SDS011;10808;48.010;11.326;2023-08-06T03:22:23;3.90;;;2.50;;
21297;SDS011;10808;48.010;11.326;2023-08-06T03:24:52;3.60;;;2.72;;
21297;SDS011;10808;48.010;11.326;2023-08-06T03:27:18;5.13;;;2.65;;
21297;SDS011;10808;48.010;11.326;2023-08-06T03:29:44;4.32;;;2.75;;
21297;SDS011;10808;48.010;11.326;2023-08-06T03:32:10;4.88;;;2.80;;
21297;SDS011;10808;48.010;11.326;2023-08-06T03:34:36;2.97;;;2.67;;
21297;SDS011;10808;48.010;11.326;2023-08-06T03:37:02;2.88;;;2.47;;
21297;SDS011;10808;48.010;11.326;2023-08-06T03:39:28;3.10;;;2.75;;
21297;SDS011;10808;48.010;11.326;2023-08-06T03:41:54;3.17;;;2.78;;
21297;SDS011;10808;48.010;11.326;2023-08-06T03:44:20;4.10;;;2.70;;
21297;SDS011;10808;48.010;11.326;2023-08-06T03:46:46;3.03;;;2.50;;
21297;SDS011;10808;48.010;11.326;2023-08-06T03:49:12;2.92;;;2.67;;
21297;SDS011;10808;48.010;11.326;2023-08-06T03:51:38;3.25;;;2.83;;
21297;SDS011;10808;48.010;11.326;2023-08-06T03:54:04;2.95;;;2.60;;
21297;SDS011;10808;48.010;11.326;2023-08-06T03:56:30;5.13;;;2.90;;
21297;SDS011;10808;48.010;11.326;2023-08-06T03:58:56;4.40;;;2.70;;
21297;SDS011;10808;48.010;11.326;2023-08-06T04:01:22;3.85;;;2.83;;
21297;SDS011;10808;48.010;11.326;2023-08-06T04:03:48;3.08;;;2.70;;
21297;SDS011;10808;48.010;11.326;2023-08-06T04:06:14;4.95;;;2.88;;
21297;SDS011;10808;48.010;11.326;2023-08-06T04:08:40;2.80;;;2.50;;
21297;SDS011;10808;48.010;11.326;2023-08-06T04:11:06;3.63;;;2.70;;
21297;SDS011;10808;48.010;11.326;2023-08-06T04:13:32;4.47;;;2.67;;
21297;SDS011;10808;48.010;11.326;2023-08-06T04:16:04;3.97;;;2.80;;
21297;SDS011;10808;48.010;11.326;2023-08-06T04:18:30;2.80;;;2.50;;
21297;SDS011;10808;48.010;11.326;2023-08-06T04:20:56;4.30;;;2.67;;
21297;SDS011;10808;48.010;11.326;2023-08-06T04:23:23;3.80;;;2.80;;
21297;SDS011;10808;48.010;11.326;2023-08-06T04:25:49;4.28;;;2.88;;
21297;SDS011;10808;48.010;11.326;2023-08-06T04:28:16;4.45;;;2.70;;
21297;SDS011;10808;48.010;11.326;2023-08-06T04:30:42;3.65;;;2.60;;
21297;SDS011;10808;48.010;11.326;2023-08-06T04:33:08;4.57;;;2.85;;
21297;SDS011;10808;48.010;11.326;2023-08-06T04:35:34;5.43;;;2.97;;
21297;SDS011;10808;48.010;11.326;2023-08-06T04:38:00;6.05;;;3.15;;
21297;SDS011;10808;48.010;11.326;2023-08-06T04:40:26;5.20;;;3.00;;
21297;SDS011;10808;48.010;11.326;2023-08-06T04:42:52;3.60;;;2.70;;
21297;SDS011;10808;48.010;11.326;2023-08-06T04:45:18;2.83;;;2.40;;
21297;SDS011;10808;48.010;11.326;2023-08-06T04:47:44;5.20;;;2.30;;
21297;SDS011;10808;48.010;11.326;2023-08-06T04:50:10;2.88;;;2.42;;
21297;SDS011;10808;48.010;11.326;2023-08-06T04:52:37;3.85;;;2.50;;
21297;SDS011;10808;48.010;11.326;2023-08-06T04:55:03;3.17;;;2.30;;
21297;SDS011;10808;48.010;11.326;2023-08-06T04:57:31;3.42;;;2.38;;
21297;SDS011;10808;48.010;11.326;2023-08-06T04:59:57;3.47;;;2.22;;
21297;SDS011;10808;48.010;11.326;2023-08-06T05:02:23;2.92;;;2.35;;
21297;SDS011;10808;48.010;11.326;2023-08-06T05:04:49;2.97;;;2.30;;
21297;SDS011;10808;48.010;11.326;2023-08-06T05:07:15;2.90;;;2.30;;
21297;SDS011;10808;48.010;11.326;2023-08-06T05:09:41;3.15;;;2.40;;
21297;SDS011;10808;48.010;11.326;2023-08-06T05:12:07;3.00;;;2.22;;
21297;SDS011;10808;48.010;11.326;2023-08-06T05:14:33;3.30;;;2.30;;
21297;SDS011;10808;48.010;11.326;2023-08-06T05:16:59;3.30;;;2.20;;
21297;SDS011;10808;48.010;11.326;2023-08-06T05:19:27;5.45;;;2.28;;
21297;SDS011;10808;48.010;11.326;2023-08-06T05:21:53;4.32;;;2.50;;
21297;SDS011;10808;48.010;11.326;2023-08-06T05:24:19;2.97;;;2.35;;
21297;SDS011;10808;48.010;11.326;2023-08-06T05:26:45;4.30;;;2.50;;
21297;SDS011;10808;48.010;11.326;2023-08-06T05:29:13;3.97;;;2.35;;
21297;SDS011;10808;48.010;11.326;2023-08-06T05:31:39;2.85;;;2.30;;
21297;SDS011;10808;48.010;11.326;2023-08-06T05:34:05;7.28;;;2.40;;
21297;SDS011;10808;48.010;11.326;2023-08-06T05:36:31;2.72;;;2.30;;
21297;SDS011;10808;48.010;11.326;2023-08-06T05:38:57;3.95;;;2.40;;
21297;SDS011;10808;48.010;11.326;2023-08-06T05:41:23;3.25;;;2.53;;
21297;SDS011;10808;48.010;11.326;2023-08-06T05:43:49;2.83;;;2.17;;
21297;SDS011;10808;48.010;11.326;2023-08-06T05:46:15;3.50;;;2.30;;
21297;SDS011;10808;48.010;11.326;2023-08-06T05:48:41;2.92;;;1.85;;
21297;SDS011;10808;48.010;11.326;2023-08-06T05:51:07;2.90;;;1.90;;
21297;SDS011;10808;48.010;11.326;2023-08-06T05:53:33;2.00;;;1.60;;
21297;SDS011;10808;48.010;11.326;2023-08-06T05:55:59;2.10;;;1.80;;
21297;SDS011;10808;48.010;11.326;2023-08-06T05:58:25;2.03;;;1.70;;
21297;SDS011;10808;48.010;11.326;2023-08-06T06:00:54;2.75;;;2.00;;
21297;SDS011;10808;48.010;11.326;2023-08-06T06:03:20;3.10;;;1.75;;
21297;SDS011;10808;48.010;11.326;2023-08-06T06:05:46;2.00;;;1.80;;
21297;SDS011;10808;48.010;11.326;2023-08-06T06:08:12;4.10;;;1.92;;
21297;SDS011;10808;48.010;11.326;2023-08-06T06:10:40;3.05;;;1.90;;
21297;SDS011;10808;48.010;11.326;2023-08-06T06:13:07;2.33;;;1.80;;
21297;SDS011;10808;48.010;11.326;2023-08-06T06:15:33;2.50;;;1.75;;
21297;SDS011;10808;48.010;11.326;2023-08-06T06:17:59;3.17;;;1.80;;
21297;SDS011;10808;48.010;11.326;2023-08-06T06:20:25;4.45;;;1.95;;
21297;SDS011;10808;48.010;11.326;2023-08-06T06:22:53;2.17;;;1.90;;
21297;SDS011;10808;48.010;11.326;2023-08-06T06:25:19;2.10;;;1.60;;
21297;SDS011;10808;48.010;11.326;2023-08-06T06:27:45;2.67;;;1.60;;
21297;SDS011;10808;48.010;11.326;2023-08-06T06:30:11;2.10;;;1.60;;
21297;SDS011;10808;48.010;11.326;2023-08-06T06:32:37;2.10;;;1.60;;
21297;SDS011;10808;48.010;11.326;2023-08-06T06:35:05;3.47;;;1.83;;
21297;SDS011;10808;48.010;11.326;2023-08-06T06:37:31;2.20;;;1.40;;
21297;SDS011;10808;48.010;11.326;2023-08-06T06:39:57;5.03;;;1.80;;
21297;SDS011;10808;48.010;11.326;2023-08-06T06:42:23;2.47;;;1.65;;
21297;SDS011;10808;48.010;11.326;2023-08-06T06:44:49;3.55;;;1.70;;
21297;SDS011;10808;48.010;11.326;2023-08-06T06:47:16;3.40;;;1.75;;
21297;SDS011;10808;48.010;11.326;2023-08-06T06:49:42;3.50;;;1.70;;
21297;SDS011;10808;48.010;11.326;2023-08-06T06:52:08;3.92;;;1.50;;
21297;SDS011;10808;48.010;11.326;2023-08-06T06:54:34;2.13;;;1.42;;
21297;SDS011;10808;48.010;11.326;2023-08-06T06:57:00;2.78;;;1.52;;
21297;SDS011;10808;48.010;11.326;2023-08-06T06:59:26;3.28;;;1.58;;
21297;SDS011;10808;48.010;11.326;2023-08-06T07:01:52;2.22;;;1.40;;
21297;SDS011;10808;48.010;11.326;2023-08-06T07:04:18;2.10;;;1.50;;
21297;SDS011;10808;48.010;11.326;2023-08-06T07:06:44;2.35;;;1.25;;
21297;SDS011;10808;48.010;11.326;2023-08-06T07:09:10;3.90;;;1.40;;
21297;SDS011;10808;48.010;11.326;2023-08-06T07:11:43;2.75;;;1.52;;
21297;SDS011;10808;48.010;11.326;2023-08-06T07:14:09;2.00;;;1.20;;
21297;SDS011;10808;48.010;11.326;2023-08-06T07:16:35;2.92;;;1.45;;
21297;SDS011;10808;48.010;11.326;2023-08-06T07:19:01;1.80;;;1.35;;
21297;SDS011;10808;48.010;11.326;2023-08-06T07:21:27;2.13;;;1.30;;
21297;SDS011;10808;48.010;11.326;2023-08-06T07:23:53;3.83;;;1.40;;
21297;SDS011;10808;48.010;11.326;2023-08-06T07:26:19;2.80;;;1.38;;
21297;SDS011;10808;48.010;11.326;2023-08-06T07:28:45;2.05;;;1.30;;
21297;SDS011;10808;48.010;11.326;2023-08-06T07:31:11;2.83;;;1.25;;
21297;SDS011;10808;48.010;11.326;2023-08-06T07:33:38;1.90;;;1.20;;
21297;SDS011;10808;48.010;11.326;2023-08-06T07:36:07;2.00;;;1.10;;
21297;SDS011;10808;48.010;11.326;2023-08-06T07:38:35;2.40;;;1.10;;
21297;SDS011;10808;48.010;11.326;2023-08-06T07:41:08;1.70;;;0.97;;
21297;SDS011;10808;48.010;11.326;2023-08-06T07:43:34;2.03;;;1.48;;
21297;SDS011;10808;48.010;11.326;2023-08-06T07:46:01;2.42;;;1.20;;
21297;SDS011;10808;48.010;11.326;2023-08-06T07:48:27;2.85;;;1.50;;
21297;SDS011;10808;48.010;11.326;2023-08-06T07:53:59;1.20;;;0.95;;
21297;SDS011;10808;48.010;11.326;2023-08-06T07:56:25;1.35;;;1.20;;
21297;SDS011;10808;48.010;11.326;2023-08-06T07:58:51;2.33;;;1.42;;
21297;SDS011;10808;48.010;11.326;2023-08-06T08:01:17;1.45;;;1.00;;
21297;SDS011;10808;48.010;11.326;2023-08-06T08:03:43;1.35;;;0.85;;
21297;SDS011;10808;48.010;11.326;2023-08-06T08:06:09;1.98;;;0.98;;
21297;SDS011;10808;48.010;11.326;2023-08-06T08:08:35;1.60;;;0.93;;
21297;SDS011;10808;48.010;11.326;2023-08-06T08:11:04;1.75;;;1.00;;
21297;SDS011;10808;48.010;11.326;2023-08-06T08:13:30;2.00;;;1.00;;
21297;SDS011;10808;48.010;11.326;2023-08-06T08:15:57;2.20;;;0.85;;
21297;SDS011;10808;48.010;11.326;2023-08-06T08:18:24;1.15;;;0.85;;
21297;SDS011;10808;48.010;11.326;2023-08-06T08:20:51;1.17;;;0.70;;
21297;SDS011;10808;48.010;11.326;2023-08-06T08:23:17;1.50;;;0.55;;
21297;SDS011;10808;48.010;11.326;2023-08-06T08:25:43;1.00;;;0.60;;
21297;SDS011;10808;48.010;11.326;2023-08-06T08:28:09;0.60;;;0.57;;
21297;SDS011;10808;48.010;11.326;2023-08-06T08:30:35;1.05;;;0.60;;
21297;SDS011;10808;48.010;11.326;2023-08-06T08:33:01;0.93;;;0.50;;
21297;SDS011;10808;48.010;11.326;2023-08-06T08:35:27;0.80;;;0.50;;
21297;SDS011;10808;48.010;11.326;2023-08-06T08:37:53;1.50;;;0.60;;
21297;SDS011;10808;48.010;11.326;2023-08-06T08:40:19;1.20;;;0.50;;
21297;SDS011;10808;48.010;11.326;2023-08-06T08:42:52;1.88;;;0.70;;
21297;SDS011;10808;48.010;11.326;2023-08-06T08:45:18;1.45;;;0.70;;
21297;SDS011;10808;48.010;11.326;2023-08-06T08:47:47;1.08;;;0.80;;
21297;SDS011;10808;48.010;11.326;2023-08-06T08:50:14;1.70;;;0.60;;
21297;SDS011;10808;48.010;11.326;2023-08-06T08:52:40;2.00;;;0.57;;
21297;SDS011;10808;48.010;11.326;2023-08-06T08:55:07;1.67;;;0.55;;
21297;SDS011;10808;48.010;11.326;2023-08-06T08:57:34;1.60;;;0.50;;
21297;SDS011;10808;48.010;11.326;2023-08-06T09:00:00;0.80;;;0.43;;
21297;SDS011;10808;48.010;11.326;2023-08-06T09:02:28;0.95;;;0.40;;
21297;SDS011;10808;48.010;11.326;2023-08-06T09:04:56;1.90;;;0.50;;
21297;SDS011;10808;48.010;11.326;2023-08-06T09:07:27;3.25;;;0.50;;
21297;SDS011;10808;48.010;11.326;2023-08-06T09:09:56;0.55;;;0.40;;
21297;SDS011;10808;48.010;11.326;2023-08-06T09:12:23;2.15;;;0.60;;
21297;SDS011;10808;48.010;11.326;2023-08-06T09:14:49;2.05;;;0.45;;
21297;SDS011;10808;48.010;11.326;2023-08-06T09:17:16;1.23;;;0.40;;
21297;SDS011;10808;48.010;11.326;2023-08-06T09:19:45;1.25;;;0.40;;
21297;SDS011;10808;48.010;11.326;2023-08-06T09:22:13;0.60;;;0.30;;
21297;SDS011;10808;48.010;11.326;2023-08-06T09:24:41;3.17;;;0.70;;
21297;SDS011;10808;48.010;11.326;2023-08-06T09:27:13;1.58;;;0.73;;
21297;SDS011;10808;48.010;11.326;2023-08-06T09:29:40;0.55;;;0.50;;
21297;SDS011;10808;48.010;11.326;2023-08-06T09:32:08;1.52;;;0.60;;
21297;SDS011;10808;48.010;11.326;2023-08-06T09:34:34;1.15;;;0.47;;
21297;SDS011;10808;48.010;11.326;2023-08-06T09:37:00;0.68;;;0.50;;
21297;SDS011;10808;48.010;11.326;2023-08-06T09:39:27;1.25;;;0.70;;
21297;SDS011;10808;48.010;11.326;2023-08-06T09:41:58;1.48;;;0.47;;
21297;SDS011;10808;48.010;11.326;2023-08-06T09:44:26;1.85;;;0.45;;
21297;SDS011;10808;48.010;11.326;2023-08-06T09:46:54;0.80;;;0.57;;
21297;SDS011;10808;48.010;11.326;2023-08-06T09:49:24;0.90;;;0.50;;
21297;SDS011;10808;48.010;11.326;2023-08-06T09:51:52;0.50;;;0.50;;
21297;SDS011;10808;48.010;11.326;2023-08-06T09:54:24;0.50;;;0.50;;
21297;SDS011;10808;48.010;11.326;2023-08-06T09:56:52;1.27;;;0.50;;
21297;SDS011;10808;48.010;11.326;2023-08-06T09:59:19;0.50;;;0.50;;
21297;SDS011;10808;48.010;11.326;2023-08-06T10:01:45;0.30;;;0.30;;
21297;SDS011;10808;48.010;11.326;2023-08-06T10:04:12;1.58;;;0.30;;
21297;SDS011;10808;48.010;11.326;2023-08-06T10:06:41;0.43;;;0.30;;
21297;SDS011;10808;48.010;11.326;2023-08-06T10:09:11;0.50;;;0.40;;
21297;SDS011;10808;48.010;11.326;2023-08-06T10:11:38;0.47;;;0.40;;
21297;SDS011;10808;48.010;11.326;2023-08-06T10:14:16;0.30;;;0.30;;
21297;SDS011;10808;48.010;11.326;2023-08-06T10:16:46;0.30;;;0.30;;
21297;SDS011;10808;48.010;11.326;2023-08-06T10:19:13;1.83;;;0.50;;
21297;SDS011;10808;48.010;11.326;2023-08-06T10:21:40;2.20;;;0.20;;
21297;SDS011;10808;48.010;11.326;2023-08-06T10:24:07;0.40;;;0.35;;
21297;SDS011;10808;48.010;11.326;2023-08-06T10:26:36;0.35;;;0.30;;
21297;SDS011;10808;48.010;11.326;2023-08-06T10:32:01;0.20;;;0.20;;
21297;SDS011;10808;48.010;11.326;2023-08-06T10:34:52;0.55;;;0.30;;
21297;SDS011;10808;48.010;11.326;2023-08-06T10:37:18;0.40;;;0.30;;
21297;SDS011;10808;48.010;11.326;2023-08-06T10:39:48;1.63;;;0.30;;
21297;SDS011;10808;48.010;11.326;2023-08-06T10:42:22;0.30;;;0.30;;
21297;SDS011;10808;48.010;11.326;2023-08-06T10:47:39;0.30;;;0.30;;
21297;SDS011;10808;48.010;11.326;2023-08-06T10:50:10;0.38;;;0.30;;
21297;SDS011;10808;48.010;11.326;2023-08-06T10:52:43;0.50;;;0.30;;
21297;SDS011;10808;48.010;11.326;2023-08-06T10:55:10;0.20;;;0.20;;
21297;SDS011;10808;48.010;11.326;2023-08-06T10:57:36;0.30;;;0.28;;
21297;SDS011;10808;48.010;11.326;2023-08-06T11:00:06;0.30;;;0.30;;
21297;SDS011;10808;48.010;11.326;2023-08-06T11:02:34;0.88;;;0.30;;
21297;SDS011;10808;48.010;11.326;2023-08-06T11:05:05;0.20;;;0.20;;
21297;SDS011;10808;48.010;11.326;2023-08-06T11:07:32;0.20;;;0.20;;
21297;SDS011;10808;48.010;11.326;2023-08-06T11:10:09;1.10;;;0.20;;
21297;SDS011;10808;48.010;11.326;2023-08-06T11:12:37;0.20;;;0.20;;
21297;SDS011;10808;48.010;11.326;2023-08-06T11:15:03;0.35;;;0.20;;
21297;SDS011;10808;48.010;11.326;2023-08-06T11:17:31;0.47;;;0.30;;
21297;SDS011;10808;48.010;11.326;2023-08-06T11:19:58;1.50;;;0.20;;
21297;SDS011;10808;48.010;11.326;2023-08-06T11:22:26;1.70;;;0.30;;
21297;SDS011;10808;48.010;11.326;2023-08-06T11:24:52;7.70;;;0.30;;
21297;SDS011;10808;48.010;11.326;2023-08-06T11:27:19;0.28;;;0.20;;
21297;SDS011;10808;48.010;11.326;2023-08-06T11:29:45;0.40;;;0.20;;
21297;SDS011;10808;48.010;11.326;2023-08-06T11:32:11;1.52;;;0.20;;
21297;SDS011;10808;48.010;11.326;2023-08-06T11:34:38;0.55;;;0.22;;
21297;SDS011;10808;48.010;11.326;2023-08-06T11:37:05;0.30;;;0.20;;
21297;SDS011;10808;48.010;11.326;2023-08-06T11:39:32;0.40;;;0.10;;
21297;SDS011;10808;48.010;11.326;2023-08-06T11:42:08;0.20;;;0.20;;
21297;SDS011;10808;48.010;11.326;2023-08-06T11:44:34;0.57;;;0.30;;
21297;SDS011;10808;48.010;11.326;2023-08-06T11:47:02;1.17;;;0.30;;
21297;SDS011;10808;48.010;11.326;2023-08-06T11:52:10;0.25;;;0.20;;
21297;SDS011;10808;48.010;11.326;2023-08-06T11:54:39;0.30;;;0.30;;
21297;SDS011;10808;48.010;11.326;2023-08-06T11:57:05;0.40;;;0.30;;
21297;SDS011;10808;48.010;11.326;2023-08-06T11:59:32;0.25;;;0.25;;
21297;SDS011;10808;48.010;11.326;2023-08-06T12:02:02;1.92;;;0.30;;
21297;SDS011;10808;48.010;11.326;2023-08-06T12:04:31;0.30;;;0.20;;
21297;SDS011;10808;48.010;11.326;2023-08-06T12:07:07;0.30;;;0.30;;
21297;SDS011;10808;48.010;11.326;2023-08-06T12:09:33;0.50;;;0.30;;
21297;SDS011;10808;48.010;11.326;2023-08-06T12:11:59;0.57;;;0.30;;
21297;SDS011;10808;48.010;11.326;2023-08-06T12:14:25;0.38;;;0.30;;
21297;SDS011;10808;48.010;11.326;2023-08-06T12:16:51;0.47;;;0.30;;
21297;SDS011;10808;48.010;11.326;2023-08-06T12:19:17;0.20;;;0.20;;
21297;SDS011;10808;48.010;11.326;2023-08-06T12:21:43;0.35;;;0.35;;
21297;SDS011;10808;48.010;11.326;2023-08-06T12:24:09;1.52;;;0.30;;
21297;SDS011;10808;48.010;11.326;2023-08-06T12:26:36;0.20;;;0.20;;
21297;SDS011;10808;48.010;11.326;2023-08-06T12:29:02;0.40;;;0.40;;
21297;SDS011;10808;48.010;11.326;2023-08-06T12:31:28;0.95;;;0.28;;
21297;SDS011;10808;48.010;11.326;2023-08-06T12:33:54;0.20;;;0.20;;
21297;SDS011;10808;48.010;11.326;2023-08-06T12:36:20;0.30;;;0.30;;
21297;SDS011;10808;48.010;11.326;2023-08-06T12:38:46;0.47;;;0.30;;
21297;SDS011;10808;48.010;11.326;2023-08-06T12:41:12;0.80;;;0.30;;
21297;SDS011;10808;48.010;11.326;2023-08-06T12:43:38;0.30;;;0.28;;
21297;SDS011;10808;48.010;11.326;2023-08-06T12:46:04;0.30;;;0.30;;
21297;SDS011;10808;48.010;11.326;2023-08-06T12:48:30;0.68;;;0.38;;
21297;SDS011;10808;48.010;11.326;2023-08-06T12:50:56;0.55;;;0.30;;
21297;SDS011;10808;48.010;11.326;2023-08-06T12:53:22;0.40;;;0.40;;
21297;SDS011;10808;48.010;11.326;2023-08-06T12:55:48;0.25;;;0.22;;
21297;SDS011;10808;48.010;11.326;2023-08-06T12:58:14;0.60;;;0.30;;
21297;SDS011;10808;48.010;11.326;2023-08-06T13:00:40;1.10;;;0.30;;
21297;SDS011;10808;48.010;11.326;2023-08-06T13:03:06;0.55;;;0.30;;
21297;SDS011;10808;48.010;11.326;2023-08-06T13:05:32;0.80;;;0.40;;
21297;SDS011;10808;48.010;11.326;2023-08-06T13:08:04;1.00;;;0.40;;
21297;SDS011;10808;48.010;11.326;2023-08-06T13:10:30;1.15;;;0.75;;
21297;SDS011;10808;48.010;11.326;2023-08-06T13:12:56;0.50;;;0.50;;
21297;SDS011;10808;48.010;11.326;2023-08-06T13:15:22;0.30;;;0.30;;
21297;SDS011;10808;48.010;11.326;2023-08-06T13:17:49;0.65;;;0.45;;
21297;SDS011;10808;48.010;11.326;2023-08-06T13:20:15;0.75;;;0.50;;
21297;SDS011;10808;48.010;11.326;2023-08-06T13:22:41;0.93;;;0.45;;
21297;SDS011;10808;48.010;11.326;2023-08-06T13:25:07;1.20;;;0.30;;
21297;SDS011;10808;48.010;11.326;2023-08-06T13:27:33;0.80;;;0.40;;
21297;SDS011;10808;48.010;11.326;2023-08-06T13:29:59;0.55;;;0.50;;
21297;SDS011;10808;48.010;11.326;2023-08-06T13:32:25;0.50;;;0.50;;
21297;SDS011;10808;48.010;11.326;2023-08-06T13:34:51;0.60;;;0.50;;
21297;SDS011;10808;48.010;11.326;2023-08-06T13:37:17;0.40;;;0.40;;
21297;SDS011;10808;48.010;11.326;2023-08-06T13:39:43;0.50;;;0.40;;
21297;SDS011;10808;48.010;11.326;2023-08-06T13:42:09;0.50;;;0.50;;
21297;SDS011;10808;48.010;11.326;2023-08-06T13:44:35;0.38;;;0.38;;
21297;SDS011;10808;48.010;11.326;2023-08-06T13:47:01;0.43;;;0.40;;
21297;SDS011;10808;48.010;11.326;2023-08-06T13:49:27;0.30;;;0.30;;
21297;SDS011;10808;48.010;11.326;2023-08-06T13:51:53;0.55;;;0.50;;
21297;SDS011;10808;48.010;11.326;2023-08-06T13:54:19;0.50;;;0.50;;
21297;SDS011;10808;48.010;11.326;2023-08-06T13:56:46;0.77;;;0.40;;
21297;SDS011;10808;48.010;11.326;2023-08-06T13:59:12;1.20;;;0.38;;
21297;SDS011;10808;48.010;11.326;2023-08-06T14:01:39;0.32;;;0.32;;
21297;SDS011;10808;48.010;11.326;2023-08-06T14:04:05;0.40;;;0.40;;
21297;SDS011;10808;48.010;11.326;2023-08-06T14:06:31;0.30;;;0.30;;
21297;SDS011;10808;48.010;11.326;2023-08-06T14:08:57;0.50;;;0.50;;
21297;SDS011;10808;48.010;11.326;2023-08-06T14:11:24;0.70;;;0.50;;
21297;SDS011;10808;48.010;11.326;2023-08-06T14:13:50;0.40;;;0.40;;
21297;SDS011;10808;48.010;11.326;2023-08-06T14:16:16;0.30;;;0.30;;
21297;SDS011;10808;48.010;11.326;2023-08-06T14:18:42;0.75;;;0.40;;
21297;SDS011;10808;48.010;11.326;2023-08-06T14:21:08;0.40;;;0.40;;
21297;SDS011;10808;48.010;11.326;2023-08-06T14:23:34;0.40;;;0.40;;
21297;SDS011;10808;48.010;11.326;2023-08-06T14:26:00;1.00;;;0.50;;
21297;SDS011;10808;48.010;11.326;2023-08-06T14:28:26;0.75;;;0.40;;
21297;SDS011;10808;48.010;11.326;2023-08-06T14:30:52;0.47;;;0.40;;
21297;SDS011;10808;48.010;11.326;2023-08-06T14:33:18;0.40;;;0.40;;
21297;SDS011;10808;48.010;11.326;2023-08-06T14:35:44;1.00;;;0.40;;
21297;SDS011;10808;48.010;11.326;2023-08-06T14:38:10;0.47;;;0.47;;
21297;SDS011;10808;48.010;11.326;2023-08-06T14:40:36;0.90;;;0.53;;
21297;SDS011;10808;48.010;11.326;2023-08-06T14:43:05;2.08;;;0.60;;